createdAt,value
2023-03-16T00:00:14.061Z,100127.06
2023-03-16T00:02:43.469Z,100133.06
2023-03-16T00:05:14.706Z,100124.47
2023-03-16T00:07:45.124Z,100125.34
2023-03-16T00:10:14.776Z,100127.94
2023-03-16T00:12:45.092Z,100132.22
2023-03-16T00:15:13.979Z,100140.84
2023-03-16T00:17:43.011Z,100129.66
2023-03-16T00:20:13.832Z,100142.56
2023-03-16T00:22:43.263Z,100146.84
2023-03-16T00:25:15.454Z,100142.56
2023-03-16T00:27:44.019Z,100144.31
2023-03-16T00:30:14.363Z,100145.16
2023-03-16T00:32:43.073Z,100155.47
2023-03-16T00:35:11.916Z,100151.19
2023-03-16T00:37:42.746Z,100153.78
2023-03-16T00:40:14.123Z,100164.97
2023-03-16T00:42:43.530Z,100158.94
2023-03-16T00:45:12.682Z,100161.53
2023-03-16T00:47:42.330Z,100161.53
2023-03-16T00:50:11.892Z,100161.53
2023-03-16T00:52:40.344Z,100161.53
2023-03-16T00:55:09.460Z,100161.53
2023-03-16T00:57:39.640Z,100159.81
2023-03-16T01:00:13.106Z,100159.81
2023-03-16T01:02:42.262Z,100155.50
2023-03-16T01:05:11.231Z,100156.38
2023-03-16T01:07:39.938Z,100161.50
2023-03-16T01:10:10.570Z,100146.06
2023-03-16T01:12:40.513Z,100155.50
2023-03-16T01:15:11.047Z,100161.50
2023-03-16T01:17:39.315Z,100170.09
2023-03-16T01:20:12.108Z,100177.84
2023-03-16T01:22:40.495Z,100173.53
2023-03-16T01:25:12.222Z,100175.28
2023-03-16T01:27:44.902Z,100174.44
2023-03-16T01:30:14.264Z,100173.56
2023-03-16T01:32:43.559Z,100177.84
2023-03-16T01:35:14.768Z,100185.56
2023-03-16T01:37:43.200Z,100183.88
2023-03-16T01:40:22.347Z,100179.59
2023-03-16T01:43:02.890Z,100189.03
2023-03-16T01:46:18.402Z,100189.03
2023-03-16T01:48:56.411Z,100186.44
2023-03-16T01:51:33.281Z,100183.00
2023-03-16T01:54:06.175Z,100182.16
2023-03-16T01:56:39.126Z,100186.44
2023-03-16T01:59:13.270Z,100184.72
2023-03-16T02:01:42.544Z,100189.03
2023-03-16T02:04:31.924Z,100187.31
2023-03-16T02:07:02.939Z,100194.16
2023-03-16T02:09:34.849Z,100192.47
2023-03-16T02:12:03.299Z,100202.75
2023-03-16T02:14:36.011Z,100206.22
2023-03-16T02:17:04.538Z,100199.31
2023-03-16T02:19:42.319Z,100204.47
2023-03-16T02:22:14.149Z,100204.47
2023-03-16T02:24:43.520Z,100207.03
2023-03-16T02:27:14.986Z,100216.50
2023-03-16T02:30:07.764Z,100219.06
2023-03-16T02:32:45.701Z,100222.50
2023-03-16T02:35:14.810Z,100220.78
2023-03-16T02:37:44.198Z,100229.38
2023-03-16T02:40:22.708Z,100229.38
2023-03-16T02:43:02.944Z,100228.50
2023-03-16T02:45:41.005Z,100233.66
2023-03-16T02:48:15.170Z,100233.63
2023-03-16T02:50:48.206Z,100242.22
2023-03-16T02:53:17.373Z,100241.34
2023-03-16T02:55:46.610Z,100252.53
2023-03-16T02:58:16.205Z,100251.66
2023-03-16T03:00:46.550Z,100251.66
2023-03-16T03:03:18.552Z,100252.50
2023-03-16T03:05:46.892Z,100259.31
2023-03-16T03:08:15.723Z,100263.63
2023-03-16T03:10:44.907Z,100260.19
2023-03-16T03:13:13.909Z,100258.47
2023-03-16T03:15:42.505Z,100272.19
2023-03-16T03:18:14.697Z,100275.59
2023-03-16T03:20:43.366Z,100276.44
2023-03-16T03:23:12.155Z,100271.28
2023-03-16T03:25:43.067Z,100275.59
2023-03-16T03:28:11.871Z,100271.28
2023-03-16T03:30:41.826Z,100278.16
2023-03-16T03:33:10.320Z,100274.69
2023-03-16T03:35:42.145Z,100277.28
2023-03-16T03:38:11.710Z,100282.41
2023-03-16T03:40:41.587Z,100283.25
2023-03-16T03:43:10.000Z,100287.53
2023-03-16T03:45:43.013Z,100290.97
2023-03-16T03:48:11.733Z,100296.09
2023-03-16T03:50:41.482Z,100294.41
2023-03-16T03:53:35.995Z,100295.25
2023-03-16T03:56:28.165Z,100296.09
2023-03-16T03:58:56.529Z,100296.09
2023-03-16T04:01:49.193Z,100297.78
2023-03-16T04:04:18.656Z,100300.38
2023-03-16T04:06:48.801Z,100296.91
2023-03-16T04:09:17.432Z,100301.22
2023-03-16T04:11:47.344Z,100299.47
2023-03-16T04:14:16.009Z,100296.00
2023-03-16T04:16:45.595Z,100306.31
2023-03-16T04:19:15.277Z,100316.63
2023-03-16T04:21:44.472Z,100319.22
2023-03-16T04:24:14.924Z,100329.50
2023-03-16T04:26:45.209Z,100314.06
2023-03-16T04:29:18.283Z,100319.19
2023-03-16T04:31:47.593Z,100331.16
2023-03-16T04:34:17.302Z,100332.84
2023-03-16T04:36:45.635Z,100331.97
2023-03-16T04:39:16.337Z,100337.97
2023-03-16T04:41:44.743Z,100336.25
2023-03-16T04:44:19.045Z,100341.38
2023-03-16T04:46:47.722Z,100342.25
2023-03-16T04:49:16.226Z,100339.66
2023-03-16T04:51:46.856Z,100346.56
2023-03-16T04:54:22.122Z,100343.97
2023-03-16T04:56:50.610Z,100353.41
2023-03-16T04:59:37.482Z,100347.38
2023-03-16T05:02:25.169Z,100353.38
2023-03-16T05:04:55.288Z,100352.53
2023-03-16T05:07:24.734Z,100360.25
2023-03-16T05:09:57.696Z,100361.13
2023-03-16T05:12:26.418Z,100363.72
2023-03-16T05:15:00.794Z,100366.28
2023-03-16T05:17:51.999Z,100359.44
2023-03-16T05:20:22.565Z,100367.19
2023-03-16T05:22:55.340Z,100366.34
2023-03-16T05:25:32.124Z,100373.25
2023-03-16T05:28:06.028Z,100377.56
2023-03-16T05:30:46.421Z,100369.88
2023-03-16T05:33:20.109Z,100371.63
2023-03-16T05:35:52.733Z,100379.34
2023-03-16T05:38:24.210Z,100377.63
2023-03-16T05:40:54.766Z,100382.84
2023-03-16T05:43:53.272Z,100386.31
2023-03-16T05:46:24.296Z,100380.31
2023-03-16T05:48:54.014Z,100386.34
2023-03-16T05:51:26.910Z,100386.38
2023-03-16T05:53:57.897Z,100389.81
2023-03-16T05:56:48.833Z,100390.72
2023-03-16T05:59:20.034Z,100393.34
2023-03-16T06:01:54.727Z,100396.78
2023-03-16T06:04:23.724Z,100386.53
2023-03-16T06:06:52.562Z,100394.28
2023-03-16T06:09:26.465Z,100392.59
2023-03-16T06:11:57.773Z,100389.16
2023-03-16T06:14:27.252Z,100390.94
2023-03-16T06:16:57.219Z,100396.09
2023-03-16T06:19:26.043Z,100402.13
2023-03-16T06:22:01.209Z,100401.31
2023-03-16T06:24:30.072Z,100403.91
2023-03-16T06:27:00.192Z,100398.72
2023-03-16T06:29:35.340Z,100400.47
2023-03-16T06:32:05.532Z,100408.19
2023-03-16T06:34:35.437Z,100414.22
2023-03-16T06:37:06.527Z,100423.72
2023-03-16T06:39:35.297Z,100421.97
2023-03-16T06:42:05.892Z,100420.28
2023-03-16T06:44:35.262Z,100422.00
2023-03-16T06:47:10.541Z,100430.56
2023-03-16T06:49:39.588Z,100434.88
2023-03-16T06:52:16.701Z,100442.59
2023-03-16T06:54:45.159Z,100446.03
2023-03-16T06:57:15.859Z,100445.16
2023-03-16T06:59:45.595Z,100440.00
2023-03-16T07:02:15.455Z,100446.88
2023-03-16T07:04:45.077Z,100450.25
2023-03-16T07:07:14.039Z,100446.78
2023-03-16T07:09:42.675Z,100452.75
2023-03-16T07:12:11.968Z,100450.09
2023-03-16T07:14:42.176Z,100451.78
2023-03-16T07:17:13.683Z,100447.41
2023-03-16T07:19:42.211Z,100443.06
2023-03-16T07:22:11.226Z,100449.06
2023-03-16T07:24:41.892Z,100447.31
2023-03-16T07:27:12.493Z,100454.19
2023-03-16T07:29:43.241Z,100461.00
2023-03-16T07:32:11.967Z,100460.09
2023-03-16T07:34:42.062Z,100460.91
2023-03-16T07:37:11.520Z,100462.53
2023-03-16T07:39:40.881Z,100471.94
2023-03-16T07:42:18.941Z,100465.75
2023-03-16T07:45:08.679Z,100481.13
2023-03-16T07:47:37.471Z,100471.47
2023-03-16T07:50:16.309Z,100473.84
2023-03-16T07:52:47.703Z,100471.06
2023-03-16T07:55:16.634Z,100468.25
2023-03-16T07:57:48.490Z,100471.41
2023-03-16T08:00:24.313Z,100465.13
2023-03-16T08:02:54.158Z,100473.44
2023-03-16T08:05:22.985Z,100469.53
2023-03-16T08:07:57.542Z,100466.03
2023-03-16T08:10:29.509Z,100468.72
2023-03-16T08:13:06.214Z,100473.03
2023-03-16T08:15:37.372Z,100470.25
2023-03-16T08:18:12.798Z,100475.03
2023-03-16T08:20:42.261Z,100480.56
2023-03-16T08:23:11.925Z,100480.31
2023-03-16T08:25:42.995Z,100474.75
2023-03-16T08:28:16.294Z,100478.06
2023-03-16T08:30:51.140Z,100490.56
2023-03-16T08:33:39.853Z,100482.97
2023-03-16T08:36:13.576Z,100486.09
2023-03-16T08:38:53.543Z,100498.00
2023-03-16T08:41:30.966Z,100497.34
2023-03-16T08:44:03.409Z,100492.41
2023-03-16T08:46:34.250Z,100497.22
2023-03-16T08:49:03.703Z,100489.94
2023-03-16T08:51:33.835Z,100497.78
2023-03-16T08:54:02.426Z,100494.63
2023-03-16T08:56:30.900Z,100496.84
2023-03-16T08:58:59.900Z,100498.47
2023-03-16T09:01:29.812Z,100503.03
2023-03-16T09:04:00.783Z,100508.03
2023-03-16T09:06:29.371Z,100503.69
2023-03-16T09:08:57.947Z,100510.06
2023-03-16T09:11:28.967Z,100516.03
2023-03-16T09:13:58.467Z,100514.69
2023-03-16T09:16:27.347Z,100515.94
2023-03-16T09:18:56.499Z,100518.06
2023-03-16T09:21:26.808Z,100513.81
2023-03-16T09:23:56.531Z,100504.19
2023-03-16T09:26:25.543Z,100508.78
2023-03-16T09:28:54.621Z,100514.56
2023-03-16T09:31:23.400Z,100508.09
2023-03-16T09:33:52.334Z,100514.50
2023-03-16T09:36:20.872Z,100512.50
2023-03-16T09:38:51.132Z,100518.34
2023-03-16T09:41:33.610Z,100522.72
2023-03-16T09:44:11.817Z,100515.97
2023-03-16T09:46:43.926Z,100516.53
2023-03-16T09:49:16.346Z,100512.09
2023-03-16T09:51:49.976Z,100518.13
2023-03-16T09:54:29.483Z,100513.28
2023-03-16T09:56:59.942Z,100509.47
2023-03-16T09:59:28.804Z,100527.25
2023-03-16T10:02:12.804Z,100522.00
2023-03-16T10:04:50.810Z,100526.31
2023-03-16T10:07:32.527Z,100527.75
2023-03-16T10:10:17.184Z,100525.38
2023-03-16T10:12:50.734Z,100526.06
2023-03-16T10:15:22.442Z,100522.56
2023-03-16T10:17:57.549Z,100525.22
2023-03-16T10:20:29.015Z,100523.06
2023-03-16T10:22:59.633Z,100526.91
2023-03-16T10:25:36.931Z,100521.72
2023-03-16T10:28:05.861Z,100523.63
2023-03-16T10:30:37.502Z,100515.28
2023-03-16T10:33:18.584Z,100520.81
2023-03-16T10:35:50.002Z,100519.28
2023-03-16T10:38:38.848Z,100519.63
2023-03-16T10:41:22.867Z,100518.81
2023-03-16T10:43:53.630Z,100517.19
2023-03-16T10:46:22.741Z,100518.66
2023-03-16T10:48:59.892Z,100519.03
2023-03-16T10:51:32.277Z,100520.56
2023-03-16T10:54:11.540Z,100520.41
2023-03-16T10:56:41.713Z,100515.63
2023-03-16T10:59:27.905Z,100516.44
2023-03-16T11:01:57.252Z,100505.09
2023-03-16T11:04:25.947Z,100520.56
2023-03-16T11:06:57.164Z,100515.03
2023-03-16T11:09:33.084Z,100521.22
2023-03-16T11:12:14.352Z,100521.41
2023-03-16T11:14:46.913Z,100517.88
2023-03-16T11:17:19.266Z,100512.03
2023-03-16T11:19:54.671Z,100524.13
2023-03-16T11:22:25.376Z,100515.94
2023-03-16T11:24:58.351Z,100514.47
2023-03-16T11:27:35.135Z,100511.53
2023-03-16T11:30:11.426Z,100514.19
2023-03-16T11:32:42.101Z,100507.78
2023-03-16T11:35:16.653Z,100513.91
2023-03-16T11:37:55.896Z,100516.59
2023-03-16T11:40:38.789Z,100510.88
2023-03-16T11:43:20.375Z,100512.03
2023-03-16T11:45:56.726Z,100514.16
2023-03-16T11:48:36.782Z,100508.34
2023-03-16T11:51:16.490Z,100516.59
2023-03-16T11:53:59.962Z,100516.50
2023-03-16T11:56:35.560Z,100522.22
2023-03-16T11:59:36.908Z,100523.38
2023-03-16T12:02:40.559Z,100518.22
2023-03-16T12:05:24.864Z,100513.69
2023-03-16T12:08:09.365Z,100519.44
2023-03-16T12:10:43.929Z,100516.03
2023-03-16T12:13:30.658Z,100514.56
2023-03-16T12:16:05.913Z,100520.66
2023-03-16T12:18:42.661Z,100513.63
2023-03-16T12:21:16.255Z,100517.66
2023-03-16T12:23:52.584Z,100513.06
2023-03-16T12:26:24.219Z,100513.53
2023-03-16T12:28:55.640Z,100515.19
2023-03-16T12:31:37.697Z,100512.66
2023-03-16T12:34:11.211Z,100516.81
2023-03-16T12:36:59.043Z,100516.41
2023-03-16T12:39:46.048Z,100515.28
2023-03-16T12:42:33.746Z,100518.84
2023-03-16T12:45:07.243Z,100521.25
2023-03-16T12:47:45.124Z,100521.66
2023-03-16T12:50:16.658Z,100519.25
2023-03-16T12:52:47.852Z,100526.28
2023-03-16T12:55:18.992Z,100517.53
2023-03-16T12:57:51.781Z,100531.78
2023-03-16T13:00:22.785Z,100529.41
2023-03-16T13:02:57.394Z,100533.84
2023-03-16T13:05:32.501Z,100540.03
2023-03-16T13:08:11.159Z,100528.94
2023-03-16T13:10:40.089Z,100535.72
2023-03-16T13:13:17.330Z,100534.78
2023-03-16T13:15:47.866Z,100526.13
2023-03-16T13:18:24.998Z,100534.53
2023-03-16T13:20:59.138Z,100533.25
2023-03-16T13:23:30.207Z,100540.31
2023-03-16T13:26:14.767Z,100534.00
2023-03-16T13:28:47.289Z,100540.56
2023-03-16T13:31:27.292Z,100536.81
2023-03-16T13:34:00.448Z,100540.94
2023-03-16T13:36:30.212Z,100543.06
2023-03-16T13:39:05.847Z,100539.22
2023-03-16T13:41:34.527Z,100545.81
2023-03-16T13:44:03.033Z,100544.38
2023-03-16T13:46:32.090Z,100539.63
2023-03-16T13:49:02.481Z,100536.16
2023-03-16T13:51:36.007Z,100545.72
2023-03-16T13:54:18.537Z,100539.44
2023-03-16T13:56:47.562Z,100547.53
2023-03-16T13:59:17.891Z,100542.63
2023-03-16T14:01:48.719Z,100553.41
2023-03-16T14:04:24.080Z,100551.31
2023-03-16T14:06:55.533Z,100546.63
2023-03-16T14:09:28.912Z,100542.72
2023-03-16T14:11:58.185Z,100547.53
2023-03-16T14:14:30.483Z,100550.34
2023-03-16T14:17:05.642Z,100548.03
2023-03-16T14:19:43.845Z,100562.19
2023-03-16T14:22:15.376Z,100550.03
2023-03-16T14:24:45.488Z,100546.59
2023-03-16T14:27:20.621Z,100541.09
2023-03-16T14:29:55.954Z,100550.50
2023-03-16T14:32:29.230Z,100544.34
2023-03-16T14:35:18.407Z,100551.41
2023-03-16T14:37:49.498Z,100555.97
2023-03-16T14:40:27.438Z,100562.47
2023-03-16T14:43:00.245Z,100566.28
2023-03-16T14:45:33.698Z,100561.53
2023-03-16T14:48:06.593Z,100560.88
2023-03-16T14:50:37.314Z,100565.34
2023-03-16T14:53:06.943Z,100561.19
2023-03-16T14:55:36.555Z,100563.91
2023-03-16T14:58:05.698Z,100562.22
2023-03-16T15:00:42.811Z,100573.59
2023-03-16T15:03:18.393Z,100567.69
2023-03-16T15:05:51.136Z,100565.25
2023-03-16T15:08:26.584Z,100567.09
2023-03-16T15:10:59.094Z,100566.28
2023-03-16T15:13:53.297Z,100568.97
2023-03-16T15:16:23.349Z,100559.38
2023-03-16T15:18:53.330Z,100574.91
2023-03-16T15:21:26.812Z,100566.25
2023-03-16T15:23:58.889Z,100574.09
2023-03-16T15:26:29.917Z,100568.16
2023-03-16T15:28:59.761Z,100572.53
2023-03-16T15:31:28.341Z,100572.50
2023-03-16T15:33:56.976Z,100573.25
2023-03-16T15:36:26.913Z,100574.91
2023-03-16T15:38:57.280Z,100580.13
2023-03-16T15:41:30.168Z,100575.84
2023-03-16T15:44:03.583Z,100578.66
2023-03-16T15:46:32.482Z,100579.59
2023-03-16T15:49:02.149Z,100579.66
2023-03-16T15:51:33.962Z,100583.31
2023-03-16T15:54:05.073Z,100571.31
2023-03-16T15:56:50.996Z,100584.38
2023-03-16T15:59:22.389Z,100579.13
2023-03-16T16:01:51.909Z,100573.91
2023-03-16T16:04:25.231Z,100573.09
2023-03-16T16:06:55.670Z,100569.75
2023-03-16T16:09:24.781Z,100579.41
2023-03-16T16:11:53.808Z,100575.16
2023-03-16T16:14:28.326Z,100583.13
2023-03-16T16:16:57.073Z,100580.72
2023-03-16T16:19:25.888Z,100590.38
2023-03-16T16:21:57.420Z,100583.53
2023-03-16T16:24:26.473Z,100589.78
2023-03-16T16:26:56.091Z,100596.72
2023-03-16T16:29:27.344Z,100598.50
2023-03-16T16:31:56.847Z,100602.06
2023-03-16T16:34:26.080Z,100603.91
2023-03-16T16:36:55.267Z,100604.03
2023-03-16T16:39:25.938Z,100610.22
2023-03-16T16:41:56.584Z,100607.78
2023-03-16T16:44:28.737Z,100609.72
2023-03-16T16:46:59.862Z,100615.06
2023-03-16T16:49:30.882Z,100614.31
2023-03-16T16:52:01.255Z,100620.44
2023-03-16T16:54:32.842Z,100623.13
2023-03-16T16:57:01.952Z,100623.16
2023-03-16T16:59:32.592Z,100637.97
2023-03-16T17:02:03.357Z,100631.19
2023-03-16T17:04:32.058Z,100645.97
2023-03-16T17:07:02.888Z,100639.88
2023-03-16T17:09:33.190Z,100647.63
2023-03-16T17:12:03.320Z,100635.47
2023-03-16T17:14:32.322Z,100657.97
2023-03-16T17:17:03.586Z,100658.00
2023-03-16T17:19:32.953Z,100658.88
2023-03-16T17:22:01.985Z,100660.66
2023-03-16T17:24:32.292Z,100660.75
2023-03-16T17:27:03.045Z,100661.72
2023-03-16T17:29:33.451Z,100667.00
2023-03-16T17:32:03.009Z,100667.94
2023-03-16T17:34:34.482Z,100663.69
2023-03-16T17:37:03.401Z,100669.81
2023-03-16T17:39:35.011Z,100670.75
2023-03-16T17:42:05.442Z,100665.66
2023-03-16T17:44:38.643Z,100672.66
2023-03-16T17:47:13.244Z,100672.69
2023-03-16T17:49:41.878Z,100680.56
2023-03-16T17:52:15.384Z,100677.16
2023-03-16T17:54:47.133Z,100684.13
2023-03-16T17:57:19.006Z,100679.84
2023-03-16T17:59:48.011Z,100687.63
2023-03-16T18:02:40.584Z,100685.13
2023-03-16T18:05:19.138Z,100690.38
2023-03-16T18:07:49.624Z,100692.19
2023-03-16T18:10:21.925Z,100697.38
2023-03-16T18:12:56.917Z,100704.28
2023-03-16T18:15:29.559Z,100695.59
2023-03-16T18:17:58.627Z,100699.88
2023-03-16T18:20:31.142Z,100711.09
2023-03-16T18:23:01.982Z,100718.00
2023-03-16T18:25:36.292Z,100708.56
2023-03-16T18:28:04.755Z,100712.06
2023-03-16T18:30:34.062Z,100705.25
2023-03-16T18:33:04.218Z,100712.28
2023-03-16T18:35:33.135Z,100713.19
2023-03-16T18:38:02.148Z,100716.72
2023-03-16T18:40:31.441Z,100717.66
2023-03-16T18:43:01.611Z,100714.25
2023-03-16T18:45:31.103Z,100714.31
2023-03-16T18:47:59.706Z,100719.50
2023-03-16T18:50:30.392Z,100729.03
2023-03-16T18:52:59.429Z,100725.59
2023-03-16T18:55:28.996Z,100735.13
2023-03-16T18:57:58.866Z,100737.72
2023-03-16T19:00:29.951Z,100727.38
2023-03-16T19:03:01.523Z,100739.47
2023-03-16T19:05:35.955Z,100739.50
2023-03-16T19:08:06.474Z,100748.13
2023-03-16T19:10:37.527Z,100754.22
2023-03-16T19:13:14.706Z,100749.91
2023-03-16T19:15:46.917Z,100751.63
2023-03-16T19:18:16.160Z,100753.41
2023-03-16T19:20:49.035Z,100762.06
2023-03-16T19:23:22.148Z,100758.59
2023-03-16T19:25:51.930Z,100758.59
2023-03-16T19:28:27.187Z,100763.78
2023-03-16T19:30:57.175Z,100760.34
2023-03-16T19:33:27.125Z,100767.28
2023-03-16T19:35:57.066Z,100769.03
2023-03-16T19:38:26.986Z,100763.03
2023-03-16T19:40:58.619Z,100769.94
2023-03-16T19:43:28.646Z,100782.03
2023-03-16T19:45:59.951Z,100770.84
2023-03-16T19:48:33.360Z,100774.28
2023-03-16T19:51:02.318Z,100767.38
2023-03-16T19:53:30.984Z,100772.56
2023-03-16T19:56:00.041Z,100778.63
2023-03-16T19:58:33.504Z,100783.78
2023-03-16T20:01:03.714Z,100782.06
2023-03-16T20:03:36.597Z,100779.44
2023-03-16T20:06:05.568Z,100789.78
2023-03-16T20:08:34.043Z,100791.53
2023-03-16T20:11:08.794Z,100795.78
2023-03-16T20:13:37.599Z,100794.06
2023-03-16T20:16:08.572Z,100792.28
2023-03-16T20:18:37.604Z,100799.16
2023-03-16T20:21:07.360Z,100798.25
2023-03-16T20:23:36.066Z,100798.22
2023-03-16T20:26:04.835Z,100792.16
2023-03-16T20:28:36.191Z,100797.28
2023-03-16T20:31:16.327Z,100795.50
2023-03-16T20:33:45.174Z,100802.38
2023-03-16T20:36:14.512Z,100808.38
2023-03-16T20:38:44.060Z,100800.63
2023-03-16T20:41:20.009Z,100800.56
2023-03-16T20:43:49.797Z,100796.25
2023-03-16T20:46:27.533Z,100805.69
2023-03-16T20:48:56.842Z,100803.91
2023-03-16T20:51:25.279Z,100798.75
2023-03-16T20:53:53.807Z,100800.44
2023-03-16T20:56:25.488Z,100803.88
2023-03-16T20:58:56.361Z,100799.53
2023-03-16T21:01:27.835Z,100802.97
2023-03-16T21:03:57.421Z,100802.94
2023-03-16T21:06:28.592Z,100802.06
2023-03-16T21:08:59.219Z,100803.81
2023-03-16T21:11:33.363Z,100809.84
2023-03-16T21:14:02.433Z,100803.00
2023-03-16T21:16:32.472Z,100802.16
2023-03-16T21:19:01.229Z,100811.59
2023-03-16T21:21:29.760Z,100803.03
2023-03-16T21:23:58.214Z,100805.66
2023-03-16T21:26:29.365Z,100806.53
2023-03-16T21:29:00.634Z,100810.84
2023-03-16T21:31:29.680Z,100809.97
2023-03-16T21:33:59.761Z,100807.41
2023-03-16T21:36:29.766Z,100808.22
2023-03-16T21:38:59.327Z,100801.25
2023-03-16T21:41:27.845Z,100802.09
2023-03-16T21:43:56.375Z,100799.47
2023-03-16T21:46:25.713Z,100809.75
2023-03-16T21:48:56.264Z,100809.72
2023-03-16T21:51:30.393Z,100821.72
2023-03-16T21:53:59.313Z,100810.53
2023-03-16T21:56:28.049Z,100814.84
2023-03-16T21:58:56.406Z,100817.38
2023-03-16T22:01:27.900Z,100823.38
2023-03-16T22:03:58.777Z,100814.75
2023-03-16T22:06:29.205Z,100813.00
2023-03-16T22:08:59.752Z,100820.69
2023-03-16T22:11:29.766Z,100824.97
2023-03-16T22:13:59.295Z,100822.41
2023-03-16T22:16:33.551Z,100824.97
2023-03-16T22:19:02.257Z,100817.22
2023-03-16T22:21:35.265Z,100824.97
2023-03-16T22:24:05.550Z,100819.81
2023-03-16T22:26:34.807Z,100824.06
2023-03-16T22:29:07.821Z,100817.19
2023-03-16T22:31:39.948Z,100820.59
2023-03-16T22:34:10.603Z,100824.88
2023-03-16T22:36:40.500Z,100814.56
2023-03-16T22:39:13.027Z,100817.97
2023-03-16T22:41:41.529Z,100811.94
2023-03-16T22:44:20.768Z,100815.41
2023-03-16T22:46:51.213Z,100817.94
2023-03-16T22:49:22.369Z,100818.75
2023-03-16T22:51:54.584Z,100820.44
2023-03-16T22:54:27.766Z,100824.66
2023-03-16T22:56:57.053Z,100831.50
2023-03-16T22:59:28.272Z,100824.53
2023-03-16T23:01:57.511Z,100826.16
2023-03-16T23:04:30.390Z,100823.53
2023-03-16T23:07:00.508Z,100827.75
2023-03-16T23:09:29.047Z,100822.47
2023-03-16T23:11:59.608Z,100824.16
2023-03-16T23:14:30.980Z,100818.06
2023-03-16T23:16:59.430Z,100822.28
2023-03-16T23:19:30.903Z,100829.97
2023-03-16T23:22:02.404Z,100828.22
2023-03-16T23:24:30.975Z,100830.75
2023-03-16T23:26:59.560Z,100823.91
2023-03-16T23:29:29.148Z,100830.72
2023-03-16T23:31:58.013Z,100829.00
2023-03-16T23:34:27.083Z,100832.38
2023-03-16T23:36:55.860Z,100834.06
2023-03-16T23:39:26.195Z,100839.16
2023-03-16T23:41:55.265Z,100833.13
2023-03-16T23:44:26.890Z,100840.84
2023-03-16T23:46:56.666Z,100837.38
2023-03-16T23:49:27.336Z,100841.66
2023-03-16T23:51:58.696Z,100845.97
2023-03-16T23:54:31.165Z,100845.06
2023-03-16T23:56:59.583Z,100838.16
2023-03-16T23:59:28.945Z,100846.81
